Time;durP1;ratioP1;P1;durP2;ratioP2;P2;SDS_P1;SDS_P2;PMS_P1;PMS_P2;Temp;Humidity;BMP_temperature;BMP_pressure;BME280_temperature;BME280_humidity;BME280_pressure;Samples;Min_cycle;Max_cycle;Signal;HPM_P1;HPM_P2
2021/04/05 00:01:33;;;;;;;37.88;18.52;;;7.80;90.80;;;;;;4973463;28;20066;-74
2021/04/05 00:03:59;;;;;;;43.05;20.25;;;7.80;90.70;;;;;;4973412;28;20544;-73
2021/04/05 00:06:25;;;;;;;39.67;20.08;;;7.80;90.70;;;;;;4972359;28;20035;-73
2021/04/05 00:08:51;;;;;;;40.70;22.30;;;7.80;90.80;;;;;;4973032;28;20031;-73
2021/04/05 00:11:18;;;;;;;47.17;23.90;;;7.80;90.80;;;;;;4974390;28;20417;-74
2021/04/05 00:13:44;;;;;;;57.20;24.92;;;7.80;90.80;;;;;;4973125;28;20043;-72
2021/04/05 00:16:12;;;;;;;41.03;22.38;;;7.80;90.70;;;;;;4971863;28;20078;-74
2021/04/05 00:18:37;;;;;;;52.07;24.40;;;7.90;90.70;;;;;;4972552;28;20117;-73
2021/04/05 00:21:11;;;;;;;46.75;24.15;;;7.90;90.70;;;;;;4972890;28;20118;-73
2021/04/05 00:23:36;;;;;;;45.13;23.77;;;7.90;90.60;;;;;;4974100;28;20035;-72
2021/04/05 00:26:03;;;;;;;48.13;25.15;;;7.90;90.50;;;;;;4972537;28;20351;-73
2021/04/05 00:28:29;;;;;;;54.65;24.95;;;7.90;90.50;;;;;;4971442;28;20039;-73
2021/04/05 00:30:55;;;;;;;59.80;26.70;;;7.90;90.50;;;;;;4972976;28;20530;-73
2021/04/05 00:33:21;;;;;;;56.05;26.45;;;7.90;90.40;;;;;;4972934;28;20066;-74
2021/04/05 00:35:47;;;;;;;49.17;24.38;;;8.00;90.30;;;;;;4972366;28;20033;-73
2021/04/05 00:38:13;;;;;;;49.63;25.67;;;8.00;90.30;;;;;;4974237;28;20453;-74
2021/04/05 00:40:55;;;;;;;49.97;25.35;;;7.90;90.40;;;;;;4972475;28;20116;-73
2021/04/05 00:43:21;;;;;;;54.13;25.95;;;8.00;90.40;;;;;;4972569;28;20088;-73
2021/04/05 00:45:47;;;;;;;46.13;24.27;;;8.00;90.30;;;;;;4987556;28;20039;-72
2021/04/05 00:48:14;;;;;;;52.90;25.92;;;7.90;90.40;;;;;;4987769;28;20113;-73
2021/04/05 00:50:52;;;;;;;44.63;24.83;;;7.90;90.40;;;;;;4974556;28;20416;-73
2021/04/05 00:53:25;;;;;;;47.60;24.77;;;8.00;90.40;;;;;;4972615;28;20039;-74
2021/04/05 00:55:51;;;;;;;49.38;24.88;;;8.00;90.30;;;;;;4972467;28;20043;-74
2021/04/05 00:58:18;;;;;;;46.63;23.98;;;8.00;90.30;;;;;;4971116;28;20035;-73
2021/04/05 01:00:49;;;;;;;46.60;23.45;;;7.90;90.40;;;;;;4972380;28;20047;-73
2021/04/05 01:03:17;;;;;;;45.08;23.17;;;7.90;90.30;;;;;;4972421;28;20027;-72
2021/04/05 01:05:44;;;;;;;46.67;22.90;;;7.90;90.30;;;;;;4973651;28;20039;-73
2021/04/05 01:08:12;;;;;;;44.28;23.48;;;8.00;90.20;;;;;;4971971;28;20050;-74
2021/04/05 01:10:38;;;;;;;38.28;22.40;;;7.90;90.20;;;;;;4972208;28;20081;-73
2021/04/05 01:13:05;;;;;;;44.78;23.00;;;8.00;90.40;;;;;;4971963;28;20066;-73
2021/04/05 01:15:30;;;;;;;41.85;21.30;;;7.90;90.00;;;;;;4972199;28;20049;-73
2021/04/05 01:17:56;;;;;;;41.20;22.05;;;7.90;90.00;;;;;;4971809;28;20098;-73
2021/04/05 01:20:22;;;;;;;41.00;21.48;;;8.00;89.80;;;;;;4973197;28;20039;-74
2021/04/05 01:22:51;;;;;;;43.83;21.60;;;7.90;89.70;;;;;;4987050;28;20461;-74
2021/04/05 01:25:18;;;;;;;44.47;20.38;;;8.00;89.60;;;;;;4971794;28;20035;-74
2021/04/05 01:27:44;;;;;;;43.33;20.38;;;7.90;89.40;;;;;;4971640;28;20030;-73
2021/04/05 01:30:27;;;;;;;39.53;19.73;;;8.00;89.30;;;;;;4972028;28;20130;-74
2021/04/05 01:33:02;;;;;;;36.28;19.55;;;7.90;89.30;;;;;;4971634;28;20360;-74
2021/04/05 01:35:28;;;;;;;43.63;20.67;;;7.90;89.10;;;;;;4982740;28;20149;-72
2021/04/05 01:37:55;;;;;;;37.75;20.65;;;7.90;89.20;;;;;;5009207;28;20105;-73
2021/04/05 01:40:21;;;;;;;42.00;20.77;;;8.00;89.10;;;;;;5010501;28;20065;-73
2021/04/05 01:42:46;;;;;;;37.25;19.45;;;7.90;89.40;;;;;;5010627;28;20063;-73
2021/04/05 01:45:17;;;;;;;46.58;22.30;;;7.90;89.60;;;;;;5009157;28;20034;-73
2021/04/05 01:47:46;;;;;;;47.55;21.17;;;7.90;89.70;;;;;;5010880;28;20026;-73
2021/04/05 01:50:12;;;;;;;40.53;21.13;;;7.90;90.00;;;;;;5009299;28;20088;-73
2021/04/05 01:52:40;;;;;;;42.05;22.05;;;7.90;90.00;;;;;;5010297;28;20056;-73
2021/04/05 01:55:06;;;;;;;48.42;21.77;;;7.90;90.00;;;;;;5010269;28;20053;-74
2021/04/05 01:57:32;;;;;;;42.03;20.73;;;8.00;90.10;;;;;;5009738;28;20026;-75
2021/04/05 01:59:57;;;;;;;47.58;21.65;;;8.00;90.10;;;;;;5009896;28;20521;-74
2021/04/05 02:02:23;;;;;;;45.70;21.83;;;8.00;90.10;;;;;;5011628;28;20444;-74
2021/04/05 02:04:49;;;;;;;44.47;20.50;;;8.00;90.30;;;;;;5009041;28;20128;-75
2021/04/05 02:07:15;;;;;;;40.55;20.67;;;8.00;90.30;;;;;;5009024;28;20021;-74
2021/04/05 02:09:40;;;;;;;44.42;21.80;;;8.00;90.30;;;;;;5009913;28;20113;-74
2021/04/05 02:12:07;;;;;;;53.20;21.88;;;8.10;90.50;;;;;;5009701;28;20367;-74
2021/04/05 02:14:32;;;;;;;42.33;21.40;;;8.10;90.40;;;;;;5011279;28;20034;-73
2021/04/05 02:16:58;;;;;;;51.08;22.20;;;8.10;90.80;;;;;;5008953;28;20049;-73
2021/04/05 02:19:24;;;;;;;44.75;22.60;;;8.10;90.80;;;;;;5008613;28;20153;-73
2021/04/05 02:21:50;;;;;;;48.88;21.85;;;8.10;91.00;;;;;;5008435;28;20377;-74
2021/04/05 02:24:16;;;;;;;42.38;20.58;;;8.10;90.80;;;;;;5008633;28;20030;-74
2021/04/05 02:26:46;;;;;;;45.28;22.40;;;8.00;90.90;;;;;;5011228;28;20041;-73
2021/04/05 02:29:17;;;;;;;49.38;22.60;;;8.10;91.00;;;;;;5009951;28;20096;-73
2021/04/05 02:31:43;;;;;;;52.53;23.08;;;8.00;91.10;;;;;;5009899;28;20038;-74
2021/04/05 02:34:12;;;;;;;43.38;21.85;;;8.10;91.20;;;;;;5009771;28;20038;-75
2021/04/05 02:36:39;;;;;;;42.85;21.70;;;8.00;91.20;;;;;;5009456;28;20056;-75
2021/04/05 02:39:09;;;;;;;45.67;24.47;;;8.00;91.20;;;;;;5009163;28;20022;-73
2021/04/05 02:41:39;;;;;;;41.42;20.23;;;8.00;91.40;;;;;;5011093;28;20028;-74
2021/04/05 02:44:05;;;;;;;43.35;20.45;;;8.00;91.50;;;;;;5009292;28;20053;-74
2021/04/05 02:46:33;;;;;;;46.35;21.80;;;8.00;91.50;;;;;;5008249;28;20100;-74
2021/04/05 02:49:00;;;;;;;48.65;22.73;;;7.90;91.60;;;;;;5008143;28;20109;-73
2021/04/05 02:51:26;;;;;;;49.45;22.60;;;8.00;91.80;;;;;;5008147;28;20120;-73
2021/04/05 02:53:56;;;;;;;48.78;23.13;;;7.90;91.80;;;;;;5008775;28;20321;-72
2021/04/05 02:56:22;;;;;;;51.97;23.15;;;8.00;91.90;;;;;;5010093;28;20022;-73
2021/04/05 02:58:50;;;;;;;48.70;23.50;;;8.00;91.90;;;;;;5008419;28;20030;-73
2021/04/05 03:01:16;;;;;;;;;;;8.00;91.80;;;;;;5009956;28;20108;-73
2021/04/05 03:03:44;;;;;;;48.13;21.85;;;8.10;91.70;;;;;;5009798;28;19920;-73
2021/04/05 03:06:21;;;;;;;45.50;21.92;;;8.10;91.80;;;;;;5007779;28;20044;-73
2021/04/05 03:08:47;;;;;;;49.53;21.95;;;8.10;91.80;;;;;;5008159;28;20030;-73
2021/04/05 03:11:14;;;;;;;44.63;22.95;;;8.10;91.80;;;;;;5010844;28;20113;-73
2021/04/05 03:13:40;;;;;;;49.90;23.00;;;8.10;91.80;;;;;;5008137;28;20034;-73
2021/04/05 03:16:10;;;;;;;52.50;23.75;;;8.10;91.90;;;;;;5007693;28;20041;-74
2021/04/05 03:18:37;;;;;;;47.45;22.85;;;8.10;92.00;;;;;;5009111;28;20022;-74
2021/04/05 03:21:08;;;;;;;46.95;23.50;;;8.10;92.00;;;;;;5008132;28;20137;-74
2021/04/05 03:23:34;;;;;;;44.22;21.38;;;8.10;92.00;;;;;;5010946;28;20041;-73
2021/04/05 03:26:00;;;;;;;48.75;22.13;;;8.20;92.00;;;;;;5009439;28;20136;-74
2021/04/05 03:28:26;;;;;;;47.42;23.67;;;8.20;92.20;;;;;;5007500;28;20503;-73
2021/04/05 03:31:00;;;;;;;46.15;21.50;;;8.20;92.20;;;;;;5008747;28;20053;-74
2021/04/05 03:33:42;;;;;;;44.28;22.80;;;8.20;92.20;;;;;;5008825;28;20403;-72
2021/04/05 03:36:14;;;;;;;46.10;21.92;;;8.20;92.10;;;;;;5008754;28;20045;-72
2021/04/05 03:38:40;;;;;;;52.80;23.10;;;8.20;92.20;;;;;;5010590;28;20492;-72
2021/04/05 03:41:15;;;;;;;52.63;23.05;;;8.20;92.20;;;;;;5007952;28;20049;-72
2021/04/05 03:43:55;;;;;;;51.35;22.90;;;8.20;92.20;;;;;;5007698;28;20042;-72
2021/04/05 03:46:27;;;;;;;48.78;23.27;;;8.30;92.30;;;;;;5009092;28;20073;-72
2021/04/05 03:49:01;;;;;;;52.55;23.13;;;8.30;92.40;;;;;;5007939;28;20056;-72
2021/04/05 03:51:34;;;;;;;58.25;23.58;;;8.30;92.30;;;;;;5008673;28;20030;-72
2021/04/05 03:54:10;;;;;;;49.33;23.17;;;8.30;92.20;;;;;;5007550;28;20084;-74
2021/04/05 03:56:37;;;;;;;45.05;22.88;;;8.40;92.10;;;;;;5010436;28;20045;-73
2021/04/05 03:59:07;;;;;;;47.75;23.15;;;8.30;92.30;;;;;;5008945;28;20046;-73
2021/04/05 04:01:43;;;;;;;44.58;22.42;;;8.20;92.50;;;;;;5011351;28;20033;-72
2021/04/05 04:04:14;;;;;;;50.30;23.90;;;8.30;92.50;;;;;;5012467;28;20192;-73
2021/04/05 04:06:51;;;;;;;49.17;24.35;;;8.30;92.50;;;;;;5012304;28;20109;-73
2021/04/05 04:09:19;;;;;;;48.70;23.13;;;8.20;92.70;;;;;;5012185;28;20188;-74
2021/04/05 04:11:50;;;;;;;43.58;22.63;;;8.30;92.60;;;;;;5012890;28;20317;-73
2021/04/05 04:14:17;;;;;;;49.25;23.30;;;8.30;92.40;;;;;;5012619;28;20057;-74
2021/04/05 04:16:47;;;;;;;47.05;23.02;;;8.40;92.40;;;;;;5010754;28;20054;-73
2021/04/05 04:19:14;;;;;;;48.70;22.63;;;8.40;92.50;;;;;;5010658;28;20077;-73
2021/04/05 04:21:43;;;;;;;49.63;23.13;;;8.30;92.60;;;;;;5012098;28;20141;-73
2021/04/05 04:24:09;;;;;;;50.70;24.13;;;8.40;92.60;;;;;;5011914;28;20033;-74
2021/04/05 04:26:35;;;;;;;45.63;21.95;;;8.40;92.70;;;;;;5012430;28;20057;-74
2021/04/05 04:29:02;;;;;;;47.05;20.48;;;8.40;92.80;;;;;;5010684;28;20062;-73
2021/04/05 04:31:28;;;;;;;53.42;22.63;;;8.40;92.80;;;;;;5010778;28;20050;-73
2021/04/05 04:33:53;;;;;;;49.65;21.40;;;8.40;93.00;;;;;;5011655;28;20030;-74
2021/04/05 04:36:24;;;;;;;56.10;21.20;;;8.50;93.00;;;;;;5012005;28;20037;-73
2021/04/05 04:38:56;;;;;;;42.83;22.13;;;8.40;92.90;;;;;;5011314;28;20049;-76
2021/04/05 04:41:27;;;;;;;47.95;21.35;;;8.40;92.90;;;;;;5013550;28;20022;-73
2021/04/05 04:43:55;;;;;;;42.33;19.70;;;8.50;92.90;;;;;;5011556;28;20034;-72
2021/04/05 04:46:21;;;;;;;55.10;21.45;;;8.40;93.00;;;;;;5011002;28;20460;-74
2021/04/05 04:48:47;;;;;;;47.28;20.15;;;8.40;93.10;;;;;;5010452;28;20088;-74
2021/04/05 04:51:12;;;;;;;41.30;21.75;;;8.40;93.20;;;;;;5011380;28;20072;-73
2021/04/05 04:53:38;;;;;;;50.08;21.83;;;8.50;93.20;;;;;;5012146;28;20034;-73
2021/04/05 04:56:04;;;;;;;47.83;22.27;;;8.30;93.40;;;;;;5011681;28;20040;-74
2021/04/05 04:58:31;;;;;;;46.40;20.55;;;8.40;93.50;;;;;;5011186;28;20104;-74
2021/04/05 05:00:56;;;;;;;48.25;20.80;;;8.50;93.40;;;;;;5011136;28;20045;-76
2021/04/05 05:03:25;;;;;;;51.70;19.92;;;8.50;93.50;;;;;;5011080;28;20096;-74
2021/04/05 05:05:51;;;;;;;41.05;19.30;;;8.50;93.60;;;;;;5011189;28;20041;-74
2021/04/05 05:08:17;;;;;;;46.95;20.58;;;8.60;93.80;;;;;;5012150;28;20091;-73
2021/04/05 05:10:46;;;;;;;52.00;20.58;;;8.50;94.30;;;;;;5011069;28;20467;-74
2021/04/05 05:13:11;;;;;;;51.05;20.08;;;8.50;94.70;;;;;;5010172;28;20399;-73
2021/04/05 05:15:38;;;;;;;44.65;20.33;;;8.40;95.20;;;;;;5010637;28;20026;-73
2021/04/05 05:18:05;;;;;;;45.60;19.85;;;8.40;95.40;;;;;;5011217;28;20026;-73
2021/04/05 05:20:30;;;;;;;46.72;19.58;;;8.50;95.50;;;;;;5011096;28;20046;-74
2021/04/05 05:23:01;;;;;;;43.92;19.42;;;8.50;95.70;;;;;;5009870;28;20049;-73
2021/04/05 05:25:29;;;;;;;45.92;20.25;;;8.50;96.20;;;;;;5010687;28;20050;-73
2021/04/05 05:28:04;;;;;;;43.17;19.33;;;8.40;96.20;;;;;;5009688;28;20400;-73
2021/04/05 05:30:30;;;;;;;41.95;19.20;;;8.50;96.10;;;;;;5010697;28;20032;-73
2021/04/05 05:33:01;;;;;;;41.03;18.45;;;8.40;96.50;;;;;;5010875;28;20022;-73
2021/04/05 05:35:27;;;;;;;36.78;18.50;;;8.40;96.70;;;;;;5011247;28;20014;-73
2021/04/05 05:38:02;;;;;;;42.58;18.75;;;8.30;96.80;;;;;;5010521;28;20038;-74
2021/04/05 05:40:29;;;;;;;36.22;18.33;;;8.40;96.80;;;;;;5010849;28;20038;-73
2021/04/05 05:42:58;;;;;;;37.35;17.70;;;8.40;97.10;;;;;;5010605;28;20058;-74
2021/04/05 05:45:30;;;;;;;34.63;17.98;;;8.40;97.10;;;;;;5010402;28;20030;-73
2021/04/05 05:48:23;;;;;;;38.83;17.55;;;8.30;97.40;;;;;;5010315;28;20018;-73
2021/04/05 05:51:05;;;;;;;36.33;17.45;;;8.30;97.50;;;;;;5009048;28;20460;-73
2021/04/05 05:53:58;;;;;;;38.38;17.45;;;8.30;97.70;;;;;;5012022;28;20025;-73
2021/04/05 05:56:26;;;;;;;33.28;15.95;;;8.20;97.90;;;;;;5010646;28;20034;-73
2021/04/05 05:59:11;;;;;;;38.33;17.83;;;8.20;97.90;;;;;;5008972;28;20160;-72
2021/04/05 06:01:58;;;;;;;31.17;15.57;;;8.30;97.90;;;;;;5010197;28;20523;-73
2021/04/05 06:04:29;;;;;;;35.28;16.50;;;8.40;97.80;;;;;;5009770;28;20534;-71
2021/04/05 06:07:19;;;;;;;32.97;16.10;;;8.30;97.80;;;;;;5009919;28;20096;-72
2021/04/05 06:10:15;;;;;;;34.67;14.57;;;8.40;97.60;;;;;;5008124;28;20103;-74
2021/04/05 06:12:55;;;;;;;31.20;15.27;;;8.50;97.80;;;;;;5008764;28;20038;-71
2021/04/05 06:15:25;;;;;;;29.00;15.02;;;8.30;98.00;;;;;;5009804;28;20464;-71
2021/04/05 06:18:28;;;;;;;32.22;15.00;;;8.30;98.10;;;;;;5009432;28;20085;-71
2021/04/05 06:21:29;;;;;;;25.15;13.95;;;8.40;98.10;;;;;;5009078;28;20049;-72
2021/04/05 06:24:01;;;;;;;32.38;14.45;;;8.30;98.50;;;;;;4990155;28;20088;-72
2021/04/05 06:26:51;;;;;;;27.67;13.27;;;8.30;98.60;;;;;;5010334;28;20033;-70
2021/04/05 06:29:35;;;;;;;29.75;14.75;;;8.20;98.50;;;;;;5010543;28;20034;-72
2021/04/05 06:32:19;;;;;;;29.23;13.90;;;8.30;98.80;;;;;;5009866;28;20561;-72
2021/04/05 06:35:05;;;;;;;23.27;13.63;;;8.30;98.80;;;;;;5009690;28;20038;-71
2021/04/05 06:37:36;;;;;;;26.08;12.57;;;8.10;99.00;;;;;;5009809;28;20042;-70
2021/04/05 06:40:06;;;;;;;22.17;12.52;;;8.20;99.00;;;;;;5009332;28;20034;-76
2021/04/05 06:43:09;;;;;;;25.50;13.45;;;8.20;99.00;;;;;;5009438;28;20038;-74
2021/04/05 06:45:54;;;;;;;23.73;12.23;;;8.10;99.20;;;;;;5009349;28;20029;-71
2021/04/05 06:49:01;;;;;;;26.77;12.90;;;8.10;99.30;;;;;;5009070;28;20030;-72
2021/04/05 06:51:49;;;;;;;23.20;12.70;;;8.30;99.20;;;;;;5009612;28;20041;-75
2021/04/05 06:54:33;;;;;;;;;;;8.20;99.20;;;;;;5009919;28;20030;-73
2021/04/05 06:57:10;;;;;;;22.90;12.25;;;8.20;99.30;;;;;;5009398;28;19909;-77
2021/04/05 06:59:59;;;;;;;22.07;12.10;;;8.20;99.50;;;;;;5010892;28;20032;-75
2021/04/05 07:02:46;;;;;;;28.88;12.73;;;8.00;99.60;;;;;;5008854;28;20093;-74
2021/04/05 07:05:50;;;;;;;24.48;14.00;;;8.20;99.70;;;;;;5009563;28;20045;-77
2021/04/05 07:08:33;;;;;;;31.90;13.63;;;8.20;99.80;;;;;;5008594;28;20161;-77
2021/04/05 07:11:14;;;;;;;14.02;5.97;;;8.10;99.90;;;;;;5009680;28;20347;-75
2021/04/05 07:13:43;;;;;;;7.22;3.88;;;7.80;99.00;;;;;;5009208;28;20046;-75
2021/04/05 07:16:14;;;;;;;6.47;2.60;;;7.70;98.50;;;;;;5009228;28;20256;-74
2021/04/05 07:18:47;;;;;;;7.25;2.00;;;7.50;98.00;;;;;;5009079;28;20069;-75
2021/04/05 07:21:36;;;;;;;3.97;1.50;;;7.50;97.70;;;;;;5007913;28;20466;-74
2021/04/05 07:24:32;;;;;;;2.28;1.40;;;7.40;97.80;;;;;;5008782;28;20037;-73
2021/04/05 07:27:19;;;;;;;2.92;0.90;;;7.30;97.90;;;;;;5007940;28;20069;-74
2021/04/05 07:30:15;;;;;;;3.03;0.60;;;7.40;97.70;;;;;;5010537;28;20018;-75
2021/04/05 07:33:18;;;;;;;1.13;0.75;;;7.20;97.50;;;;;;5008225;28;20034;-72
2021/04/05 07:36:01;;;;;;;1.90;0.50;;;7.20;97.40;;;;;;5013486;28;20407;-73
2021/04/05 07:38:30;;;;;;;2.35;0.40;;;7.00;97.40;;;;;;5012048;28;20049;-73
2021/04/05 07:41:22;;;;;;;1.17;0.60;;;7.10;97.50;;;;;;5012838;28;20050;-76
2021/04/05 07:44:03;;;;;;;1.88;0.55;;;7.20;97.50;;;;;;5012696;28;20036;-74
2021/04/05 07:46:54;;;;;;;1.23;0.65;;;7.20;97.40;;;;;;5012634;28;20631;-72
2021/04/05 07:49:20;;;;;;;0.82;0.50;;;7.20;97.20;;;;;;5012579;28;20046;-72
2021/04/05 07:51:54;;;;;;;0.88;0.50;;;7.20;97.10;;;;;;5012574;28;20100;-73
2021/04/05 07:54:23;;;;;;;3.50;1.23;;;7.10;97.30;;;;;;5012325;28;20096;-76
2021/04/05 07:57:09;;;;;;;1.45;0.68;;;7.10;97.40;;;;;;5012169;28;20072;-75
2021/04/05 08:00:09;;;;;;;1.98;0.55;;;7.00;97.40;;;;;;5012791;28;20135;-75
2021/04/05 08:02:46;;;;;;;2.65;0.80;;;7.00;97.10;;;;;;5013299;28;20034;-71
2021/04/05 08:05:37;;;;;;;2.47;0.63;;;7.00;96.40;;;;;;5000345;28;20038;-72
2021/04/05 08:08:39;;;;;;;3.45;0.57;;;7.10;95.80;;;;;;5013875;28;20040;-72
2021/04/05 08:11:23;;;;;;;2.10;0.57;;;7.00;95.40;;;;;;5012985;28;20100;-70
2021/04/05 08:14:20;;;;;;;4.45;0.77;;;6.90;95.00;;;;;;5013582;28;20053;-72
2021/04/05 08:16:56;;;;;;;1.50;0.40;;;6.90;94.90;;;;;;5012159;28;20179;-73
2021/04/05 08:19:49;;;;;;;4.03;0.85;;;6.80;94.90;;;;;;5013267;28;20288;-76
2021/04/05 08:22:59;;;;;;;7.85;1.05;;;6.80;94.50;;;;;;5012465;28;20029;-75
2021/04/05 08:25:56;;;;;;;7.00;0.85;;;6.70;94.80;;;;;;4981416;28;20117;-73
2021/04/05 08:28:42;;;;;;;7.40;1.20;;;6.80;95.10;;;;;;5012221;28;20080;-76
2021/04/05 08:31:21;;;;;;;6.72;1.20;;;7.00;95.10;;;;;;5013386;28;20096;-74
2021/04/05 08:34:10;;;;;;;7.78;0.68;;;7.00;94.50;;;;;;5012922;28;20105;-74
2021/04/05 08:36:46;;;;;;;3.47;0.70;;;6.80;94.50;;;;;;5010694;28;20050;-70
2021/04/05 08:39:57;;;;;;;5.13;0.73;;;6.80;94.60;;;;;;5013193;28;20026;-69
2021/04/05 08:42:40;;;;;;;5.68;0.90;;;6.90;94.50;;;;;;5011137;28;20626;-72
2021/04/05 08:45:09;;;;;;;8.90;1.13;;;7.00;94.50;;;;;;5011362;28;20038;-73
2021/04/05 08:47:38;;;;;;;10.13;0.98;;;6.70;94.30;;;;;;5009533;28;20121;-73
2021/04/05 08:50:09;;;;;;;9.35;1.00;;;6.70;94.80;;;;;;5011383;28;20061;-80
2021/04/05 08:52:40;;;;;;;6.30;0.82;;;6.70;94.90;;;;;;5010179;28;20062;-70
2021/04/05 08:55:08;;;;;;;7.68;1.00;;;6.70;94.70;;;;;;5010359;28;20046;-75
2021/04/05 08:57:41;;;;;;;5.90;1.00;;;6.90;94.70;;;;;;5010904;28;20386;-78
2021/04/05 09:00:11;;;;;;;6.25;1.48;;;6.80;94.70;;;;;;5013270;28;20090;-79
2021/04/05 09:02:44;;;;;;;3.00;1.00;;;6.80;94.60;;;;;;5010034;28;20369;-79
2021/04/05 09:05:15;;;;;;;3.58;0.73;;;6.70;94.90;;;;;;5011718;28;20476;-85
2021/04/05 09:07:58;;;;;;;7.53;0.80;;;6.70;95.00;;;;;;5010981;28;20045;-78
2021/04/05 09:10:30;;;;;;;3.88;0.80;;;6.90;95.30;;;;;;5009937;28;20042;-75
2021/04/05 09:13:04;;;;;;;5.70;0.70;;;7.00;95.60;;;;;;5010975;28;20134;-76
2021/04/05 09:15:32;;;;;;;9.32;0.90;;;7.10;95.60;;;;;;5010956;28;20029;-81
2021/04/05 09:18:28;;;;;;;9.30;1.23;;;7.10;95.60;;;;;;5012683;28;20067;-78
2021/04/05 09:21:12;;;;;;;6.78;1.42;;;7.10;95.50;;;;;;5010852;28;20462;-76
2021/04/05 09:24:14;;;;;;;2.28;0.65;;;7.00;95.70;;;;;;5010744;28;20041;-74
2021/04/05 09:27:22;;;;;;;5.10;0.90;;;7.10;95.30;;;;;;5010846;28;20045;-78
2021/04/05 09:30:30;;;;;;;5.38;1.40;;;7.20;94.70;;;;;;5011049;28;20119;-78
2021/04/05 09:33:33;;;;;;;8.65;1.52;;;7.10;94.50;;;;;;4999250;28;20050;-76
2021/04/05 09:36:04;;;;;;;9.93;1.45;;;7.20;94.40;;;;;;4992033;28;20371;-74
2021/04/05 09:38:48;;;;;;;8.95;1.30;;;7.20;94.40;;;;;;4992683;28;20043;-73
2021/04/05 09:41:31;;;;;;;12.13;1.30;;;7.40;93.90;;;;;;4992104;28;20050;-75
2021/04/05 09:44:15;;;;;;;10.23;1.17;;;7.50;94.50;;;;;;4992420;28;20038;-75
2021/04/05 09:47:19;;;;;;;9.27;1.80;;;7.50;93.20;;;;;;4992006;28;20532;-76
2021/04/05 09:50:08;;;;;;;9.02;1.50;;;7.50;93.30;;;;;;4991087;28;20050;-76
2021/04/05 09:53:10;;;;;;;10.18;1.75;;;7.50;93.30;;;;;;4992225;28;20368;-76
2021/04/05 09:55:46;;;;;;;7.22;1.02;;;7.30;93.40;;;;;;4991686;28;20373;-77
2021/04/05 09:58:22;;;;;;;3.50;0.65;;;6.60;93.80;;;;;;4991333;28;20281;-76
2021/04/05 10:00:55;;;;;;;4.32;0.93;;;6.60;94.30;;;;;;4992038;28;20132;-76
2021/04/05 10:03:22;;;;;;;1.13;0.60;;;6.50;93.60;;;;;;4992627;28;20113;-76
2021/04/05 10:05:49;;;;;;;2.85;0.60;;;6.70;93.80;;;;;;4992105;28;20057;-81
2021/04/05 10:08:22;;;;;;;5.07;0.90;;;6.80;93.60;;;;;;4990988;28;20045;-75
2021/04/05 10:10:50;;;;;;;4.55;1.20;;;6.50;93.60;;;;;;4990801;28;20026;-81
2021/04/05 10:13:17;;;;;;;8.25;1.45;;;6.60;93.30;;;;;;4991998;28;20048;-79
2021/04/05 10:15:45;;;;;;;9.40;1.57;;;6.50;92.70;;;;;;4990743;28;20027;-79
2021/04/05 10:18:15;;;;;;;5.32;1.52;;;6.60;92.40;;;;;;4993124;28;20255;-81
2021/04/05 10:20:49;;;;;;;3.05;0.50;;;6.30;92.60;;;;;;4991704;28;20475;-84
2021/04/05 10:23:20;;;;;;;1.48;0.47;;;6.20;93.90;;;;;;4990738;28;20380;-82
2021/04/05 10:25:51;;;;;;;2.85;0.38;;;5.90;93.90;;;;;;4991585;28;20046;-81
2021/04/05 10:28:18;;;;;;;2.55;0.50;;;6.00;94.30;;;;;;4991351;28;20092;-79
2021/04/05 10:30:52;;;;;;;1.88;0.40;;;5.80;94.60;;;;;;4990150;28;20096;-81
2021/04/05 10:33:25;;;;;;;5.82;1.15;;;5.50;94.30;;;;;;4991483;28;20034;-80
2021/04/05 10:35:55;;;;;;;1.05;0.47;;;5.70;94.80;;;;;;4991662;28;20137;-71
2021/04/05 10:38:22;;;;;;;5.40;1.00;;;5.90;94.90;;;;;;4991447;28;20038;-81
2021/04/05 10:40:51;;;;;;;3.30;0.50;;;6.00;94.90;;;;;;4991050;28;20035;-79
2021/04/05 10:43:28;;;;;;;2.65;1.20;;;5.90;95.10;;;;;;4991630;28;20046;-82
2021/04/05 10:45:58;;;;;;;5.63;0.70;;;6.00;95.10;;;;;;4991867;28;20041;-77
2021/04/05 10:48:37;;;;;;;6.10;1.15;;;6.00;95.10;;;;;;4992903;28;20233;-81
2021/04/05 10:51:23;;;;;;;5.55;0.80;;;5.90;94.50;;;;;;4991750;28;20062;-81
2021/04/05 10:54:01;;;;;;;3.17;0.82;;;6.00;94.80;;;;;;4990390;28;20044;-80
2021/04/05 10:56:27;;;;;;;;;;;6.20;94.20;;;;;;4991541;28;20039;-78
2021/04/05 10:58:59;;;;;;;3.45;1.08;;;6.50;93.80;;;;;;4989768;28;19909;-76
2021/04/05 11:01:26;;;;;;;2.22;0.63;;;6.60;92.80;;;;;;4990760;28;20126;-76
2021/04/05 11:03:53;;;;;;;6.78;1.00;;;7.00;92.80;;;;;;4990069;28;20066;-73
2021/04/05 11:06:22;;;;;;;8.75;1.25;;;7.30;92.10;;;;;;4991352;28;20038;-74
2021/04/05 11:08:51;;;;;;;6.25;1.02;;;7.70;91.60;;;;;;4989670;28;20034;-75
2021/04/05 11:11:21;;;;;;;8.70;1.33;;;7.70;90.20;;;;;;4991921;28;20045;-74
2021/04/05 11:13:51;;;;;;;8.60;1.30;;;8.30;88.90;;;;;;4993330;28;20050;-75
2021/04/05 11:16:19;;;;;;;8.48;1.65;;;8.40;86.90;;;;;;4993492;28;20058;-76
2021/04/05 11:18:49;;;;;;;;;;;8.00;84.20;;;;;;4992566;28;20052;-75
2021/04/05 11:21:17;;;;;;;7.97;1.45;;;7.70;85.50;;;;;;4994973;28;19953;-74
2021/04/05 11:23:43;;;;;;;;;;;7.40;83.80;;;;;;4992828;28;20543;-76
2021/04/05 11:26:10;;;;;;;7.28;1.88;;;7.60;84.40;;;;;;4992486;28;20009;-74
2021/04/05 11:28:39;;;;;;;6.43;1.70;;;7.90;84.40;;;;;;4992275;28;20112;-75
2021/04/05 11:31:07;;;;;;;9.52;1.55;;;7.90;83.90;;;;;;4993121;28;20038;-76
2021/04/05 11:33:40;;;;;;;7.50;1.25;;;8.00;83.90;;;;;;4991388;28;20057;-75
2021/04/05 11:36:07;;;;;;;2.65;1.02;;;7.80;84.60;;;;;;4994832;28;20357;-74
2021/04/05 11:38:42;;;;;;;5.15;1.52;;;7.60;89.10;;;;;;4993199;28;20504;-76
2021/04/05 11:41:10;;;;;;;5.72;1.33;;;7.00;90.80;;;;;;4993134;28;20070;-74
2021/04/05 11:43:39;;;;;;;7.30;1.23;;;6.60;91.00;;;;;;4993334;28;20125;-74
2021/04/05 11:46:11;;;;;;;4.43;0.80;;;6.60;90.90;;;;;;4991758;28;20485;-76
2021/04/05 11:48:37;;;;;;;5.97;1.10;;;6.10;89.30;;;;;;4992137;28;20444;-75
2021/04/05 11:51:04;;;;;;;6.18;1.05;;;5.80;89.30;;;;;;4994415;28;20026;-74
2021/04/05 11:53:47;;;;;;;7.63;1.50;;;5.90;87.90;;;;;;4993184;28;20097;-73
2021/04/05 11:56:16;;;;;;;4.93;0.95;;;6.00;86.50;;;;;;4993009;28;20030;-74
2021/04/05 11:58:49;;;;;;;4.68;1.10;;;6.30;85.20;;;;;;4992191;28;20050;-75
2021/04/05 12:01:18;;;;;;;5.20;0.95;;;6.40;81.60;;;;;;4992426;28;20146;-73
2021/04/05 12:03:54;;;;;;;8.35;1.40;;;6.40;80.70;;;;;;4992731;28;20028;-75
2021/04/05 12:06:33;;;;;;;8.82;1.42;;;6.60;79.80;;;;;;4993179;28;20039;-74
2021/04/05 12:09:02;;;;;;;7.18;1.60;;;6.40;77.70;;;;;;4992936;28;20038;-74
2021/04/05 12:11:32;;;;;;;8.05;1.20;;;6.50;78.40;;;;;;4992390;28;20034;-74
2021/04/05 12:14:10;;;;;;;5.60;0.90;;;6.90;78.30;;;;;;4992832;28;20503;-73
2021/04/05 12:16:37;;;;;;;;;;;6.90;77.30;;;;;;4992804;28;20050;-74
2021/04/05 12:19:04;;;;;;;8.27;1.20;;;6.80;76.50;;;;;;4992356;28;19913;-73
2021/04/05 12:21:35;;;;;;;5.93;1.17;;;6.80;76.50;;;;;;4992969;28;20100;-74
2021/04/05 12:24:03;;;;;;;14.63;1.38;;;6.90;76.30;;;;;;4992750;28;20045;-73
2021/04/05 12:26:31;;;;;;;6.60;0.90;;;6.80;77.50;;;;;;4992354;28;20041;-76
2021/04/05 12:29:09;;;;;;;6.65;1.05;;;6.70;76.80;;;;;;4991222;28;20121;-74
2021/04/05 12:31:36;;;;;;;5.72;0.82;;;6.90;76.70;;;;;;4991084;28;20089;-74
2021/04/05 12:34:11;;;;;;;6.05;1.08;;;7.10;78.80;;;;;;4992009;28;20415;-73
2021/04/05 12:36:38;;;;;;;11.18;1.20;;;6.70;87.00;;;;;;4991744;28;20030;-75
2021/04/05 12:39:07;;;;;;;3.63;0.68;;;6.20;90.50;;;;;;4993577;28;20491;-74
2021/04/05 12:41:41;;;;;;;12.80;1.52;;;6.00;91.20;;;;;;4991982;28;20417;-73
2021/04/05 12:44:13;;;;;;;5.75;1.15;;;5.10;91.70;;;;;;4990966;28;20074;-75
2021/04/05 12:46:47;;;;;;;14.02;1.35;;;5.20;92.00;;;;;;4991732;28;20096;-75
2021/04/05 12:49:13;;;;;;;11.75;1.65;;;5.40;91.90;;;;;;4991826;28;20042;-74
2021/04/05 12:51:39;;;;;;;15.65;2.45;;;5.50;91.10;;;;;;4991703;28;20080;-74
2021/04/05 12:54:07;;;;;;;6.53;1.77;;;5.30;91.30;;;;;;4992496;28;20029;-73
2021/04/05 12:56:35;;;;;;;7.40;1.10;;;5.30;91.20;;;;;;4991795;28;20030;-74
2021/04/05 12:59:01;;;;;;;;;;;5.40;92.00;;;;;;4992186;28;20038;-73
2021/04/05 13:01:43;;;;;;;5.43;1.25;;;5.50;91.90;;;;;;4992024;28;19997;-73
2021/04/05 13:04:10;;;;;;;7.30;1.90;;;5.50;91.60;;;;;;4991600;28;20069;-73
2021/04/05 13:06:48;;;;;;;14.10;1.90;;;5.70;91.40;;;;;;4990325;28;20034;-73
2021/04/05 13:09:23;;;;;;;9.93;1.90;;;5.80;90.30;;;;;;4993110;28;20424;-73
2021/04/05 13:12:22;;;;;;;11.40;2.20;;;5.70;90.20;;;;;;4990528;28;20054;-75
2021/04/05 13:14:55;;;;;;;7.07;1.63;;;5.80;90.30;;;;;;4989516;28;20034;-74
2021/04/05 13:17:28;;;;;;;11.10;2.00;;;6.00;90.20;;;;;;4990272;28;20113;-76
2021/04/05 13:20:00;;;;;;;6.88;1.35;;;6.10;89.60;;;;;;4990781;28;20046;-74
2021/04/05 13:22:29;;;;;;;9.30;2.05;;;6.30;87.80;;;;;;4989601;28;20045;-73